Kongen — LCDE — position and weather

sailwx.info

Track history (hours):
 
Tides and Currents Weather Stations Pressure Air Temp Water Temp Dewpoint Dewpoint Depression Visibility Wind Speed Wind Dir Waves Ship Positions

Kongen

Last reported at 2014-Sep-02 17:33 UTC. Time now 2014-Sep-02 19:19 UTC.
Position N 59°52' E 010°39'.

Length 50 m; draft 3.2 m.

Type: Passenger vessel. MMSI: 258509000.

Date/timePositionNaut miles runAvg speedWind from/ knotsBaromVisibWave heightAir tempDewpointWater temp
2014-Sep-02 17:33N 59°52' E 010°39'0 0.2
2014-Sep-02 16:32N 59°52' E 010°40'0 0.4
2014-Sep-02 15:33N 59°53' E 010°40'2 1.8
2014-Sep-02 14:33N 59°54' E 010°43'1 0.3
2014-Sep-02 11:32N 59°55' E 010°44'0 0.0
2014-Sep-02 10:33N 59°55' E 010°44'2 2.0
2014-Sep-02 09:32N 59°53' E 010°41'2 2.0
2014-Sep-02 08:32N 59°55' E 010°44'0 0.0
2014-Sep-02 07:32N 59°55' E 010°44'3 3.0
2014-Sep-02 06:32N 59°52' E 010°40'0 0.3
2014-Sep-02 05:30N 59°53' E 010°40'0 0.0
2014-Sep-02 04:33N 59°53' E 010°40'0 0.2
2014-Sep-02 03:33N 59°53' E 010°40'0 0.1
2014-Sep-02 01:05N 59°52' E 010°39'0 0.0
2014-Sep-02 00:11N 59°52' E 010°39'0 0.0
2014-Sep-01 23:23N 59°52' E 010°39'0 0.0
2014-Sep-01 21:29N 59°52' E 010°39'0 0.0
2014-Sep-01 18:29N 59°52' E 010°39'0 0.0
2014-Sep-01 17:29N 59°52' E 010°39'0 0.1
2014-Sep-01 16:31N 59°52' E 010°40'0 0.5
2014-Sep-01 15:33N 59°53' E 010°40'2 1.7
2014-Sep-01 14:33N 59°54' E 010°42'1 0.9
2014-Sep-01 13:32N 59°55' E 010°44'0 0.0
2014-Sep-01 12:32N 59°55' E 010°44'0 0.0
2014-Sep-01 11:32N 59°55' E 010°44'0 0.0
2014-Sep-01 10:32N 59°55' E 010°44'0 0.0
2014-Sep-01 09:23N 59°55' E 010°44'0 0.0
2014-Sep-01 08:23N 59°55' E 010°44'0 0.0
2014-Sep-01 07:26N 59°55' E 010°44'3 2.9
2014-Sep-01 06:30N 59°53' E 010°40'0 0.2
2014-Sep-01 05:30N 59°53' E 010°40'0 0.4
2014-Sep-01 04:31N 59°52' E 010°40'0 0.2
2014-Sep-01 03:33N 59°53' E 010°40'3 2.6
2014-Sep-01 02:25N 59°55' E 010°44'0 0.0
2014-Sep-01 01:28N 59°55' E 010°44'0 0.0
2014-Sep-01 00:28N 59°55' E 010°44'0 0.0
2014-Aug-31 23:28N 59°55' E 010°44'0 0.0
2014-Aug-31 22:28N 59°55' E 010°44'0 0.0
2014-Aug-31 20:31N 59°55' E 010°44'0 0.0
2014-Aug-31 19:25N 59°55' E 010°44'0 0.0
2014-Aug-31 18:28N 59°55' E 010°44'0 0.0
2014-Aug-31 17:28N 59°55' E 010°44'0 0.0
2014-Aug-31 16:25N 59°55' E 010°44'0 0.0
2014-Aug-31 15:25N 59°55' E 010°44'0 0.0
2014-Aug-31 14:31N 59°55' E 010°44'0 0.0
2014-Aug-31 13:28N 59°55' E 010°44'0 0.0
2014-Aug-31 12:31N 59°55' E 010°44'0 0.0
2014-Aug-31 11:31N 59°55' E 010°44'0 0.0
2014-Aug-31 10:31N 59°55' E 010°44'0 0.0
2014-Aug-31 09:22N 59°55' E 010°44'0 0.0
2014-Aug-31 08:22N 59°55' E 010°44'0 0.0
2014-Aug-31 07:22N 59°55' E 010°44'0 0.0
2014-Aug-31 06:22N 59°55' E 010°44'0 0.0
2014-Aug-31 05:25N 59°55' E 010°44'0 0.0
2014-Aug-31 04:25N 59°55' E 010°44'0 0.0
2014-Aug-31 03:28N 59°55' E 010°44'0 0.0
2014-Aug-31 02:28N 59°55' E 010°44'0 0.0
2014-Aug-31 01:25N 59°55' E 010°44'0 0.0
2014-Aug-31 00:31N 59°55' E 010°44'0 0.0
2014-Aug-30 23:16N 59°55' E 010°44'0 0.0
2014-Aug-30 22:31N 59°55' E 010°44'0 0.0
2014-Aug-30 21:31N 59°55' E 010°44'0 0.0
2014-Aug-30 20:31N 59°55' E 010°44'0 0.0
2014-Aug-30 19:31N 59°55' E 010°44'0 0.0
2014-Aug-30 18:19N 59°55' E 010°44'0 0.0
2014-Aug-30 17:25N 59°55' E 010°44'0 0.0
2014-Aug-30 16:25N 59°55' E 010°44'0 0.0
2014-Aug-30 15:25N 59°55' E 010°44'0 0.0
2014-Aug-30 14:28N 59°55' E 010°44'0 0.0
2014-Aug-30 13:28N 59°55' E 010°44'0 0.0
2014-Aug-30 12:28N 59°55' E 010°44'0 0.0
2014-Aug-30 11:28N 59°55' E 010°44'0 0.0
2014-Aug-30 10:31N 59°55' E 010°44'0 0.0
2014-Aug-30 09:31N 59°55' E 010°44'0 0.0
2014-Aug-30 08:31N 59°55' E 010°44'0 0.0
2014-Aug-30 07:31N 59°55' E 010°44'0 0.0
2014-Aug-30 06:22N 59°55' E 010°44'0 0.0
2014-Aug-30 05:31N 59°55' E 010°44'0 0.0
2014-Aug-30 04:19N 59°55' E 010°44'0 0.0
2014-Aug-30 03:25N 59°55' E 010°44'0 0.0
2014-Aug-30 02:22N 59°55' E 010°44'0 0.0
2014-Aug-30 01:25N 59°55' E 010°44'0 0.0
2014-Aug-30 00:22N 59°55' E 010°44'0 0.0
2014-Aug-29 23:28N 59°55' E 010°44'0 0.0
2014-Aug-29 22:25N 59°55' E 010°44'0 0.0
2014-Aug-29 21:28N 59°55' E 010°44'0 0.0
2014-Aug-29 20:28N 59°55' E 010°44'0 0.0
2014-Aug-29 19:31N 59°55' E 010°44'0 0.0
2014-Aug-29 18:31N 59°55' E 010°44'0 0.0
2014-Aug-29 17:19N 59°55' E 010°44'0 0.0
2014-Aug-29 16:19N 59°55' E 010°44'3 3.1
2014-Aug-29 15:30N 59°53' E 010°40'0 0.3
2014-Aug-29 14:29N 59°53' E 010°40'1 0.5
2014-Aug-29 13:32N 59°53' E 010°40'3 2.8
2014-Aug-29 12:32N 59°55' E 010°44'0 0.0
2014-Aug-29 11:22N 59°55' E 010°44'0 0.0
2014-Aug-29 10:33N 59°55' E 010°44'0 0.1
2014-Aug-29 09:33N 59°55' E 010°44'0 0.0
2014-Aug-29 08:33N 59°55' E 010°44'0 0.0
2014-Aug-29 07:33N 59°55' E 010°44'1 1.0
2014-Aug-29 06:33N 59°54' E 010°42'1 0.2
2014-Aug-29 01:20N 59°55' E 010°44'0 0.0
2014-Aug-29 00:23N 59°55' E 010°44'0 0.0
2014-Aug-28 23:23N 59°55' E 010°44'0 0.0
2014-Aug-28 22:26N 59°55' E 010°44'0 0.0
2014-Aug-28 21:26N 59°55' E 010°44'0 0.0
2014-Aug-28 20:26N 59°55' E 010°44'0 0.0
2014-Aug-28 19:29N 59°55' E 010°44'0 0.0
2014-Aug-28 18:29N 59°55' E 010°44'0 0.0
2014-Aug-28 17:29N 59°55' E 010°44'0 0.0
2014-Aug-28 16:33N 59°55' E 010°44'0 0.0
2014-Aug-28 15:33N 59°55' E 010°44'0 0.0
2014-Aug-28 14:33N 59°55' E 010°44'0 0.0
2014-Aug-28 13:33N 59°55' E 010°44'0 0.1
2014-Aug-28 12:33N 59°55' E 010°44'0 0.0
2014-Aug-28 11:33N 59°55' E 010°44'0 0.0
2014-Aug-28 10:33N 59°55' E 010°44'1 0.6
2014-Aug-28 09:33N 59°54' E 010°43'0 0.1
2014-Aug-28 08:33N 59°54' E 010°42'1 0.7
2014-Aug-28 07:33N 59°55' E 010°44'0 0.1
2014-Aug-28 06:33N 59°55' E 010°44'0 0.0
2014-Aug-28 05:33N 59°55' E 010°44'0 0.0
2014-Aug-28 04:33N 59°55' E 010°44'2 0.2
2014-Aug-27 16:08N 59°53' E 010°40'2 4.0
2014-Aug-27 15:33N 59°55' E 010°44'3 3.1
2014-Aug-27 14:33N 59°52' E 010°40'0 0.2
2014-Aug-27 13:31N 59°53' E 010°40'3 2.8
2014-Aug-27 12:28N 59°55' E 010°44'0 0.0
2014-Aug-27 11:28N 59°55' E 010°44'0 0.0
2014-Aug-27 10:31N 59°55' E 010°44'0 0.0
2014-Aug-27 09:33N 59°55' E 010°44'0 0.1
2014-Aug-27 08:33N 59°55' E 010°44'0 0.0
2014-Aug-27 07:33N 59°55' E 010°44'1 1.0
2014-Aug-27 06:33N 59°54' E 010°42'0 0.2
2014-Aug-27 05:33N 59°54' E 010°42'1 1.1
2014-Aug-27 04:24N 59°55' E 010°44'0 0.0
2014-Aug-27 03:24N 59°55' E 010°44'0 0.0
2014-Aug-27 02:09N 59°55' E 010°44'0 0.0
2014-Aug-27 01:27N 59°55' E 010°44'0 0.0
2014-Aug-27 00:27N 59°55' E 010°44'0 0.0
2014-Aug-26 23:30N 59°55' E 010°44'0 0.0
2014-Aug-26 22:30N 59°55' E 010°44'0 0.0
2014-Aug-26 21:33N 59°55' E 010°44'0 0.0
2014-Aug-26 20:30N 59°55' E 010°44'0 0.0
2014-Aug-26 19:33N 59°55' E 010°44'0 0.0
2014-Aug-26 18:33N 59°55' E 010°44'0 0.0
2014-Aug-26 17:33N 59°55' E 010°44'0 0.0
2014-Aug-26 16:33N 59°55' E 010°44'0 0.0
2014-Aug-26 15:33N 59°55' E 010°44'0 0.0
2014-Aug-26 14:33N 59°55' E 010°44'0 0.0
2014-Aug-26 13:33N 59°55' E 010°44'0 0.0
2014-Aug-26 12:33N 59°55' E 010°44'0 0.0
2014-Aug-26 11:33N 59°55' E 010°44'0 0.0
2014-Aug-26 10:33N 59°55' E 010°44'0 0.0
2014-Aug-26 09:33N 59°55' E 010°44'0 0.0
2014-Aug-26 08:21N 59°55' E 010°44'0 0.0
2014-Aug-26 07:33N 59°55' E 010°44'0 0.0
2014-Aug-26 06:33N 59°55' E 010°44'0 0.0
2014-Aug-26 05:33N 59°55' E 010°44'0 0.0
2014-Aug-26 04:33N 59°55' E 010°44'2 0.2
2014-Aug-25 15:31N 59°53' E 010°41'0 0.3
2014-Aug-25 14:28N 59°53' E 010°40'0 0.4
2014-Aug-25 13:30N 59°53' E 010°40'3 2.2
2014-Aug-25 12:18N 59°55' E 010°44'0 0.0
2014-Aug-25 11:18N 59°55' E 010°44'0 0.0
2014-Aug-25 10:33N 59°55' E 010°44'0 0.0
2014-Aug-25 09:33N 59°55' E 010°44'0 0.0
2014-Aug-25 08:33N 59°55' E 010°44'0 0.0
2014-Aug-25 07:33N 59°55' E 010°44'1 1.2
2014-Aug-25 06:33N 59°54' E 010°42'0 0.1
2014-Aug-25 05:33N 59°54' E 010°42'1 1.2
2014-Aug-25 04:28N 59°55' E 010°44'0 0.0
2014-Aug-25 03:28N 59°55' E 010°44'0 0.0
2014-Aug-25 02:28N 59°55' E 010°44'0 0.0
2014-Aug-25 01:28N 59°55' E 010°44'0 0.0
2014-Aug-25 00:31N 59°55' E 010°44'0 0.0
2014-Aug-24 23:31N 59°55' E 010°44'0 0.0
2014-Aug-24 22:28N 59°55' E 010°44'0 0.0
2014-Aug-24 21:16N 59°55' E 010°44'0 0.0
2014-Aug-24 20:31N 59°55' E 010°44'0 0.0
2014-Aug-24 19:31N 59°55' E 010°44'0 0.0
2014-Aug-24 18:19N 59°55' E 010°44'0 0.0
2014-Aug-24 17:25N 59°55' E 010°44'0 0.0
2014-Aug-24 16:25N 59°55' E 010°44'0 0.0
2014-Aug-24 14:13N 59°55' E 010°44'0 0.0
2014-Aug-24 13:28N 59°55' E 010°44'0 0.0
2014-Aug-24 12:33N 59°55' E 010°44'0 0.0
2014-Aug-24 11:33N 59°55' E 010°44'0 0.1
2014-Aug-24 10:33N 59°54' E 010°44'0 0.1
2014-Aug-24 09:33N 59°55' E 010°44'0 0.0
2014-Aug-24 08:33N 59°55' E 010°44'0 0.1
2014-Aug-24 07:33N 59°54' E 010°44'0 0.0
2014-Aug-24 06:33N 59°55' E 010°44'0 0.1
2014-Aug-24 05:33N 59°55' E 010°44'0 0.1
2014-Aug-24 04:33N 59°55' E 010°44'0 0.1
2014-Aug-24 03:24N 59°55' E 010°44'0 0.0
2014-Aug-24 02:30N 59°55' E 010°44'0 0.0
2014-Aug-24 01:30N 59°55' E 010°44'0 0.0
2014-Aug-24 00:30N 59°55' E 010°44'0 0.0
2014-Aug-23 23:30N 59°55' E 010°44'0 0.0
2014-Aug-23 22:33N 59°55' E 010°44'0 0.0
2014-Aug-23 21:33N 59°55' E 010°44'0 0.0
2014-Aug-23 20:33N 59°55' E 010°44'0 0.0
2014-Aug-23 19:33N 59°55' E 010°44'  
Track history (hours):
 
Tides and Currents Weather Stations Pressure Air Temp Water Temp Dewpoint Dewpoint Depression Visibility Wind Speed Wind Dir Waves Ship Positions

Kongen

Last reported at 2014-Sep-02 17:33 UTC. Time now 2014-Sep-02 19:19 UTC.
Position N 59°52' E 010°39'.

Length 50 m; draft 3.2 m.

Type: Passenger vessel. MMSI: 258509000.

Date/timePositionNaut miles runAvg speedWind from/ knotsBaromVisibWave heightAir tempDewpointWater temp
2014-Sep-02 17:33N 59°52' E 010°39'0 0.2
2014-Sep-02 16:32N 59°52' E 010°40'0 0.4
2014-Sep-02 15:33N 59°53' E 010°40'2 1.8
2014-Sep-02 14:33N 59°54' E 010°43'1 0.3
2014-Sep-02 11:32N 59°55' E 010°44'0 0.0
2014-Sep-02 10:33N 59°55' E 010°44'2 2.0
2014-Sep-02 09:32N 59°53' E 010°41'2 2.0
2014-Sep-02 08:32N 59°55' E 010°44'0 0.0
2014-Sep-02 07:32N 59°55' E 010°44'3 3.0
2014-Sep-02 06:32N 59°52' E 010°40'0 0.3
2014-Sep-02 05:30N 59°53' E 010°40'0 0.0
2014-Sep-02 04:33N 59°53' E 010°40'0 0.2
2014-Sep-02 03:33N 59°53' E 010°40'0 0.1
2014-Sep-02 01:05N 59°52' E 010°39'0 0.0
2014-Sep-02 00:11N 59°52' E 010°39'0 0.0
2014-Sep-01 23:23N 59°52' E 010°39'0 0.0
2014-Sep-01 21:29N 59°52' E 010°39'0 0.0
2014-Sep-01 18:29N 59°52' E 010°39'0 0.0
2014-Sep-01 17:29N 59°52' E 010°39'0 0.1
2014-Sep-01 16:31N 59°52' E 010°40'0 0.5
2014-Sep-01 15:33N 59°53' E 010°40'2 1.7
2014-Sep-01 14:33N 59°54' E 010°42'1 0.9
2014-Sep-01 13:32N 59°55' E 010°44'0 0.0
2014-Sep-01 12:32N 59°55' E 010°44'0 0.0
2014-Sep-01 11:32N 59°55' E 010°44'0 0.0
2014-Sep-01 10:32N 59°55' E 010°44'0 0.0
2014-Sep-01 09:23N 59°55' E 010°44'0 0.0
2014-Sep-01 08:23N 59°55' E 010°44'0 0.0
2014-Sep-01 07:26N 59°55' E 010°44'3 2.9
2014-Sep-01 06:30N 59°53' E 010°40'0 0.2
2014-Sep-01 05:30N 59°53' E 010°40'0 0.4
2014-Sep-01 04:31N 59°52' E 010°40'0 0.2
2014-Sep-01 03:33N 59°53' E 010°40'3 2.6
2014-Sep-01 02:25N 59°55' E 010°44'0 0.0
2014-Sep-01 01:28N 59°55' E 010°44'0 0.0
2014-Sep-01 00:28N 59°55' E 010°44'0 0.0
2014-Aug-31 23:28N 59°55' E 010°44'0 0.0
2014-Aug-31 22:28N 59°55' E 010°44'0 0.0
2014-Aug-31 20:31N 59°55' E 010°44'0 0.0
2014-Aug-31 19:25N 59°55' E 010°44'0 0.0
2014-Aug-31 18:28N 59°55' E 010°44'0 0.0
2014-Aug-31 17:28N 59°55' E 010°44'0 0.0
2014-Aug-31 16:25N 59°55' E 010°44'0 0.0
2014-Aug-31 15:25N 59°55' E 010°44'0 0.0
2014-Aug-31 14:31N 59°55' E 010°44'0 0.0
2014-Aug-31 13:28N 59°55' E 010°44'0 0.0
2014-Aug-31 12:31N 59°55' E 010°44'0 0.0
2014-Aug-31 11:31N 59°55' E 010°44'0 0.0
2014-Aug-31 10:31N 59°55' E 010°44'0 0.0
2014-Aug-31 09:22N 59°55' E 010°44'0 0.0
2014-Aug-31 08:22N 59°55' E 010°44'0 0.0
2014-Aug-31 07:22N 59°55' E 010°44'0 0.0
2014-Aug-31 06:22N 59°55' E 010°44'0 0.0
2014-Aug-31 05:25N 59°55' E 010°44'0 0.0
2014-Aug-31 04:25N 59°55' E 010°44'0 0.0
2014-Aug-31 03:28N 59°55' E 010°44'0 0.0
2014-Aug-31 02:28N 59°55' E 010°44'0 0.0
2014-Aug-31 01:25N 59°55' E 010°44'0 0.0
2014-Aug-31 00:31N 59°55' E 010°44'0 0.0
2014-Aug-30 23:16N 59°55' E 010°44'0 0.0
2014-Aug-30 22:31N 59°55' E 010°44'0 0.0
2014-Aug-30 21:31N 59°55' E 010°44'0 0.0
2014-Aug-30 20:31N 59°55' E 010°44'0 0.0
2014-Aug-30 19:31N 59°55' E 010°44'0 0.0
2014-Aug-30 18:19N 59°55' E 010°44'0 0.0
2014-Aug-30 17:25N 59°55' E 010°44'0 0.0
2014-Aug-30 16:25N 59°55' E 010°44'0 0.0
2014-Aug-30 15:25N 59°55' E 010°44'0 0.0
2014-Aug-30 14:28N 59°55' E 010°44'0 0.0
2014-Aug-30 13:28N 59°55' E 010°44'0 0.0
2014-Aug-30 12:28N 59°55' E 010°44'0 0.0
2014-Aug-30 11:28N 59°55' E 010°44'0 0.0
2014-Aug-30 10:31N 59°55' E 010°44'0 0.0
2014-Aug-30 09:31N 59°55' E 010°44'0 0.0
2014-Aug-30 08:31N 59°55' E 010°44'0 0.0
2014-Aug-30 07:31N 59°55' E 010°44'0 0.0
2014-Aug-30 06:22N 59°55' E 010°44'0 0.0
2014-Aug-30 05:31N 59°55' E 010°44'0 0.0
2014-Aug-30 04:19N 59°55' E 010°44'0 0.0
2014-Aug-30 03:25N 59°55' E 010°44'0 0.0
2014-Aug-30 02:22N 59°55' E 010°44'0 0.0
2014-Aug-30 01:25N 59°55' E 010°44'0 0.0
2014-Aug-30 00:22N 59°55' E 010°44'0 0.0
2014-Aug-29 23:28N 59°55' E 010°44'0 0.0
2014-Aug-29 22:25N 59°55' E 010°44'0 0.0
2014-Aug-29 21:28N 59°55' E 010°44'0 0.0
2014-Aug-29 20:28N 59°55' E 010°44'0 0.0
2014-Aug-29 19:31N 59°55' E 010°44'0 0.0
2014-Aug-29 18:31N 59°55' E 010°44'0 0.0
2014-Aug-29 17:19N 59°55' E 010°44'0 0.0
2014-Aug-29 16:19N 59°55' E 010°44'3 3.1
2014-Aug-29 15:30N 59°53' E 010°40'0 0.3
2014-Aug-29 14:29N 59°53' E 010°40'1 0.5
2014-Aug-29 13:32N 59°53' E 010°40'3 2.8
2014-Aug-29 12:32N 59°55' E 010°44'0 0.0
2014-Aug-29 11:22N 59°55' E 010°44'0 0.0
2014-Aug-29 10:33N 59°55' E 010°44'0 0.1
2014-Aug-29 09:33N 59°55' E 010°44'0 0.0
2014-Aug-29 08:33N 59°55' E 010°44'0 0.0
2014-Aug-29 07:33N 59°55' E 010°44'1 1.0
2014-Aug-29 06:33N 59°54' E 010°42'1 0.2
2014-Aug-29 01:20N 59°55' E 010°44'0 0.0
2014-Aug-29 00:23N 59°55' E 010°44'0 0.0
2014-Aug-28 23:23N 59°55' E 010°44'0 0.0
2014-Aug-28 22:26N 59°55' E 010°44'0 0.0
2014-Aug-28 21:26N 59°55' E 010°44'0 0.0
2014-Aug-28 20:26N 59°55' E 010°44'0 0.0
2014-Aug-28 19:29N 59°55' E 010°44'0 0.0
2014-Aug-28 18:29N 59°55' E 010°44'0 0.0
2014-Aug-28 17:29N 59°55' E 010°44'0 0.0
2014-Aug-28 16:33N 59°55' E 010°44'0 0.0
2014-Aug-28 15:33N 59°55' E 010°44'0 0.0
2014-Aug-28 14:33N 59°55' E 010°44'0 0.0
2014-Aug-28 13:33N 59°55' E 010°44'0 0.1
2014-Aug-28 12:33N 59°55' E 010°44'0 0.0
2014-Aug-28 11:33N 59°55' E 010°44'0 0.0
2014-Aug-28 10:33N 59°55' E 010°44'1 0.6
2014-Aug-28 09:33N 59°54' E 010°43'0 0.1
2014-Aug-28 08:33N 59°54' E 010°42'1 0.7
2014-Aug-28 07:33N 59°55' E 010°44'0 0.1
2014-Aug-28 06:33N 59°55' E 010°44'0 0.0
2014-Aug-28 05:33N 59°55' E 010°44'0 0.0
2014-Aug-28 04:33N 59°55' E 010°44'2 0.2
2014-Aug-27 16:08N 59°53' E 010°40'2 4.0
2014-Aug-27 15:33N 59°55' E 010°44'3 3.1
2014-Aug-27 14:33N 59°52' E 010°40'0 0.2
2014-Aug-27 13:31N 59°53' E 010°40'3 2.8
2014-Aug-27 12:28N 59°55' E 010°44'0 0.0
2014-Aug-27 11:28N 59°55' E 010°44'0 0.0
2014-Aug-27 10:31N 59°55' E 010°44'0 0.0
2014-Aug-27 09:33N 59°55' E 010°44'0 0.1
2014-Aug-27 08:33N 59°55' E 010°44'0 0.0
2014-Aug-27 07:33N 59°55' E 010°44'1 1.0
2014-Aug-27 06:33N 59°54' E 010°42'0 0.2
2014-Aug-27 05:33N 59°54' E 010°42'1 1.1
2014-Aug-27 04:24N 59°55' E 010°44'0 0.0
2014-Aug-27 03:24N 59°55' E 010°44'0 0.0
2014-Aug-27 02:09N 59°55' E 010°44'0 0.0
2014-Aug-27 01:27N 59°55' E 010°44'0 0.0
2014-Aug-27 00:27N 59°55' E 010°44'0 0.0
2014-Aug-26 23:30N 59°55' E 010°44'0 0.0
2014-Aug-26 22:30N 59°55' E 010°44'0 0.0
2014-Aug-26 21:33N 59°55' E 010°44'0 0.0
2014-Aug-26 20:30N 59°55' E 010°44'0 0.0
2014-Aug-26 19:33N 59°55' E 010°44'0 0.0
2014-Aug-26 18:33N 59°55' E 010°44'0 0.0
2014-Aug-26 17:33N 59°55' E 010°44'0 0.0
2014-Aug-26 16:33N 59°55' E 010°44'0 0.0
2014-Aug-26 15:33N 59°55' E 010°44'0 0.0
2014-Aug-26 14:33N 59°55' E 010°44'0 0.0
2014-Aug-26 13:33N 59°55' E 010°44'0 0.0
2014-Aug-26 12:33N 59°55' E 010°44'0 0.0
2014-Aug-26 11:33N 59°55' E 010°44'0 0.0
2014-Aug-26 10:33N 59°55' E 010°44'0 0.0
2014-Aug-26 09:33N 59°55' E 010°44'0 0.0
2014-Aug-26 08:21N 59°55' E 010°44'0 0.0
2014-Aug-26 07:33N 59°55' E 010°44'0 0.0
2014-Aug-26 06:33N 59°55' E 010°44'0 0.0
2014-Aug-26 05:33N 59°55' E 010°44'0 0.0
2014-Aug-26 04:33N 59°55' E 010°44'2 0.2
2014-Aug-25 15:31N 59°53' E 010°41'0 0.3
2014-Aug-25 14:28N 59°53' E 010°40'0 0.4
2014-Aug-25 13:30N 59°53' E 010°40'3 2.2
2014-Aug-25 12:18N 59°55' E 010°44'0 0.0
2014-Aug-25 11:18N 59°55' E 010°44'0 0.0
2014-Aug-25 10:33N 59°55' E 010°44'0 0.0
2014-Aug-25 09:33N 59°55' E 010°44'0 0.0
2014-Aug-25 08:33N 59°55' E 010°44'0 0.0
2014-Aug-25 07:33N 59°55' E 010°44'1 1.2
2014-Aug-25 06:33N 59°54' E 010°42'0 0.1
2014-Aug-25 05:33N 59°54' E 010°42'1 1.2
2014-Aug-25 04:28N 59°55' E 010°44'0 0.0
2014-Aug-25 03:28N 59°55' E 010°44'0 0.0
2014-Aug-25 02:28N 59°55' E 010°44'0 0.0
2014-Aug-25 01:28N 59°55' E 010°44'0 0.0
2014-Aug-25 00:31N 59°55' E 010°44'0 0.0
2014-Aug-24 23:31N 59°55' E 010°44'0 0.0
2014-Aug-24 22:28N 59°55' E 010°44'0 0.0
2014-Aug-24 21:16N 59°55' E 010°44'0 0.0
2014-Aug-24 20:31N 59°55' E 010°44'0 0.0
2014-Aug-24 19:31N 59°55' E 010°44'0 0.0
2014-Aug-24 18:19N 59°55' E 010°44'0 0.0
2014-Aug-24 17:25N 59°55' E 010°44'0 0.0
2014-Aug-24 16:25N 59°55' E 010°44'0 0.0
2014-Aug-24 14:13N 59°55' E 010°44'0 0.0
2014-Aug-24 13:28N 59°55' E 010°44'0 0.0
2014-Aug-24 12:33N 59°55' E 010°44'0 0.0
2014-Aug-24 11:33N 59°55' E 010°44'0 0.1
2014-Aug-24 10:33N 59°54' E 010°44'0 0.1
2014-Aug-24 09:33N 59°55' E 010°44'0 0.0
2014-Aug-24 08:33N 59°55' E 010°44'0 0.1
2014-Aug-24 07:33N 59°54' E 010°44'0 0.0
2014-Aug-24 06:33N 59°55' E 010°44'0 0.1
2014-Aug-24 05:33N 59°55' E 010°44'0 0.1
2014-Aug-24 04:33N 59°55' E 010°44'0 0.1
2014-Aug-24 03:24N 59°55' E 010°44'0 0.0
2014-Aug-24 02:30N 59°55' E 010°44'0 0.0
2014-Aug-24 01:30N 59°55' E 010°44'0 0.0
2014-Aug-24 00:30N 59°55' E 010°44'0 0.0
2014-Aug-23 23:30N 59°55' E 010°44'0 0.0
2014-Aug-23 22:33N 59°55' E 010°44'0 0.0
2014-Aug-23 21:33N 59°55' E 010°44'0 0.0
2014-Aug-23 20:33N 59°55' E 010°44'0 0.0
2014-Aug-23 19:33N 59°55' E 010°44'  

Dump ship's entire track history